Time;durP1;ratioP1;P1;durP2;ratioP2;P2;SDS_P1;SDS_P2;PMS_P1;PMS_P2;Temp;Humidity;BMP_temperature;BMP_pressure;BME280_temperature;BME280_humidity;BME280_pressure;Samples;Min_cycle;Max_cycle;Signal;HPM_P1;HPM_P2
2022/07/24 00:00:29;;;;;;;24.00;22.00;;;;;;;19.40;96.29;98033.55;105415;1282;25309;-90
2022/07/24 00:03:05;;;;;;;24.70;22.10;;;;;;;19.37;96.11;98034.50;105376;1282;25296;-88
2022/07/24 00:05:35;;;;;;;25.20;23.20;;;;;;;19.37;96.02;98033.09;105340;1282;24400;-89
2022/07/24 00:08:03;;;;;;;23.40;21.20;;;;;;;19.36;96.03;98040.48;105210;1282;22633;-88
2022/07/24 00:10:32;;;;;;;24.70;22.50;;;;;;;19.37;96.81;98044.26;105318;1282;22544;-88
2022/07/24 00:13:00;;;;;;;24.30;22.00;;;;;;;19.40;98.43;98045.35;105340;1282;22577;-88
2022/07/24 00:15:30;;;;;;;25.80;23.30;;;;;;;19.40;98.82;98045.96;105343;1282;24359;-89
2022/07/24 00:17:58;;;;;;;25.60;23.50;;;;;;;19.39;98.16;98042.27;105175;1282;22682;-89
2022/07/24 00:20:26;;;;;;;26.20;24.00;;;;;;;19.39;98.67;98036.40;105440;1282;22718;-89
2022/07/24 00:22:54;;;;;;;27.30;24.30;;;;;;;19.38;98.75;98039.73;105364;1282;24361;-89
2022/07/24 00:25:22;;;;;;;26.90;24.50;;;;;;;19.36;99.14;98039.55;105362;1282;22880;-88
2022/07/24 00:27:50;;;;;;;26.60;24.20;;;;;;;19.35;98.63;98043.42;105325;1282;23372;-90
2022/07/24 00:30:18;;;;;;;28.80;26.20;;;;;;;19.33;99.28;98041.82;105323;1282;25352;-89
2022/07/24 00:32:46;;;;;;;26.70;24.40;;;;;;;19.33;99.97;98039.00;105424;1282;22618;-89
2022/07/24 00:35:14;;;;;;;27.00;24.80;;;;;;;19.30;100.00;98040.31;105327;1282;22560;-88
2022/07/24 00:37:42;;;;;;;27.10;24.60;;;;;;;19.26;100.00;98038.69;105406;1282;22616;-90
2022/07/24 00:40:10;;;;;;;27.40;24.90;;;;;;;19.21;100.00;98041.30;105309;1282;22784;-88
2022/07/24 00:42:38;;;;;;;26.80;24.40;;;;;;;19.21;100.00;98042.05;105226;1282;24350;-89
2022/07/24 00:45:07;;;;;;;30.20;27.50;;;;;;;19.20;100.00;98047.34;105370;1282;22563;-89
2022/07/24 00:47:49;;;;;;;30.20;27.30;;;;;;;19.17;99.97;98046.42;105317;1282;24227;-89
2022/07/24 00:50:17;;;;;;;29.70;26.90;;;;;;;19.17;99.98;98046.39;105326;1282;24426;-87
2022/07/24 00:52:45;;;;;;;31.70;28.80;;;;;;;19.17;100.00;98047.65;105211;1282;22628;-89
2022/07/24 00:55:14;;;;;;;29.40;26.90;;;;;;;19.16;99.87;98052.01;105371;1282;22666;-88
2022/07/24 00:57:45;;;;;;;30.80;28.10;;;;;;;19.18;100.00;98053.38;105362;1282;22591;-89
2022/07/24 01:00:14;;;;;;;31.80;29.20;;;;;;;19.15;100.00;98048.86;105392;1282;23937;-89
2022/07/24 01:02:42;;;;;;;32.90;29.70;;;;;;;19.16;100.00;98047.94;105327;1282;22694;-89
2022/07/24 01:05:11;;;;;;;33.50;30.50;;;;;;;19.16;100.00;98045.67;105391;1282;23987;-89
2022/07/24 01:07:39;;;;;;;33.50;30.40;;;;;;;19.16;100.00;98049.57;105374;1282;24045;-89
2022/07/24 01:10:08;;;;;;;35.90;32.70;;;;;;;19.18;100.00;98053.06;105144;1283;24438;-90
2022/07/24 01:12:39;;;;;;;33.30;30.40;;;;;;;19.17;100.00;98054.14;105421;1282;25486;-89
2022/07/24 01:15:10;;;;;;;32.60;29.70;;;;;;;19.18;100.00;98053.06;105395;1282;24175;-89
2022/07/24 01:17:41;;;;;;;31.50;28.50;;;;;;;19.17;100.00;98049.06;105404;1282;24219;-89
2022/07/24 01:20:10;;;;;;;31.70;28.90;;;;;;;19.16;100.00;98045.59;105423;1282;22568;-92
2022/07/24 01:22:38;;;;;;;32.30;29.40;;;;;;;19.16;100.00;98038.80;105645;1282;24179;-89
2022/07/24 01:25:07;;;;;;;28.50;26.10;;;;;;;19.10;100.00;98035.67;105500;1281;25209;-88
2022/07/24 01:27:35;;;;;;;29.70;27.00;;;;;;;19.08;100.00;98035.10;105338;1282;25495;-90
2022/07/24 01:30:03;;;;;;;27.40;25.00;;;;;;;19.05;100.00;98040.50;105385;1282;24420;-87
2022/07/24 01:32:31;;;;;;;27.30;25.00;;;;;;;19.04;100.00;98044.69;105393;1282;24329;-89
2022/07/24 01:35:00;;;;;;;27.10;25.00;;;;;;;19.02;100.00;98042.98;105434;1282;24320;-89
2022/07/24 01:37:28;;;;;;;27.60;25.20;;;;;;;19.02;100.00;98043.52;105174;1282;22666;-88
2022/07/24 01:39:56;;;;;;;28.40;25.80;;;;;;;19.00;100.00;98048.80;105390;1282;22658;-88
2022/07/24 01:42:25;;;;;;;27.20;24.60;;;;;;;18.97;100.00;98047.38;105428;1282;22698;-88
2022/07/24 01:44:53;;;;;;;29.70;27.20;;;;;;;18.97;100.00;98049.97;105146;1282;22572;-88
2022/07/24 01:47:21;;;;;;;29.20;26.50;;;;;;;18.95;100.00;98047.01;105335;1282;22679;-88
2022/07/24 01:49:49;;;;;;;26.00;23.90;;;;;;;18.91;100.00;98047.00;105159;1283;25226;-88
2022/07/24 01:52:17;;;;;;;24.60;22.50;;;;;;;18.81;100.00;98045.85;105388;1282;22709;-88
2022/07/24 01:54:45;;;;;;;25.80;23.60;;;;;;;18.72;100.00;98042.56;105149;1282;263934;-88
2022/07/24 01:57:13;;;;;;;24.20;22.00;;;;;;;18.65;100.00;98048.11;105409;1282;24294;-88
2022/07/24 01:59:46;;;;;;;27.90;25.20;;;;;;;18.58;100.00;98048.48;105336;1282;22632;-88
2022/07/24 02:02:16;;;;;;;26.70;24.40;;;;;;;18.52;100.00;98050.76;105331;1282;25516;-89
2022/07/24 02:04:44;;;;;;;25.70;23.60;;;;;;;18.48;100.00;98051.86;105137;1283;22713;-88
2022/07/24 02:07:12;;;;;;;28.30;26.00;;;;;;;18.46;100.00;98052.52;105466;1282;24902;-88
2022/07/24 02:09:40;;;;;;;31.10;28.20;;;;;;;18.41;100.00;98049.98;105320;1282;24399;-89
2022/07/24 02:12:08;;;;;;;29.50;27.00;;;;;;;18.36;100.00;98047.08;105174;1283;22716;-89
2022/07/24 02:14:36;;;;;;;30.80;28.10;;;;;;;18.34;100.00;98047.34;105189;1283;25479;-88
2022/07/24 02:17:04;;;;;;;31.90;29.00;;;;;;;18.29;100.00;98051.88;105113;1283;24493;-88
2022/07/24 02:19:32;;;;;;;30.90;28.30;;;;;;;18.26;100.00;98047.27;105395;1282;22557;-89
2022/07/24 02:22:00;;;;;;;28.30;25.50;;;;;;;18.24;100.00;98047.52;105335;1282;25382;-88
2022/07/24 02:24:28;;;;;;;28.80;26.20;;;;;;;18.22;100.00;98044.29;105333;1282;22547;-89
2022/07/24 02:26:56;;;;;;;28.90;25.60;;;;;;;18.20;100.00;98050.52;105246;1283;22701;-89
2022/07/24 02:29:30;;;;;;;28.40;24.60;;;;;;;18.17;100.00;98047.23;105363;1282;22696;-89
2022/07/24 02:31:58;;;;;;;27.00;24.60;;;;;;;18.14;100.00;98047.93;105344;1282;22724;-90
2022/07/24 02:34:27;;;;;;;27.20;24.60;;;;;;;18.11;100.00;98047.79;105226;1283;22566;-90
2022/07/24 02:36:55;;;;;;;27.70;25.00;;;;;;;18.07;100.00;98049.98;105248;1282;23017;-89
2022/07/24 02:39:22;;;;;;;27.40;24.70;;;;;;;18.04;100.00;98049.51;105335;1282;22785;-89
2022/07/24 02:41:50;;;;;;;25.30;22.90;;;;;;;18.01;100.00;98054.56;105421;1281;25308;-88
2022/07/24 02:44:18;;;;;;;24.70;22.40;;;;;;;17.97;100.00;98053.19;105107;1283;22758;-89
2022/07/24 02:46:47;;;;;;;25.60;23.00;;;;;;;17.93;100.00;98056.80;105387;1282;22565;-89
2022/07/24 02:49:14;;;;;;;25.10;20.70;;;;;;;17.86;100.00;98060.80;105178;1283;22567;-93
2022/07/24 02:51:42;;;;;;;23.50;21.30;;;;;;;17.77;100.00;98058.17;105321;1282;22857;-90
2022/07/24 02:54:12;;;;;;;18.50;16.60;;;;;;;17.68;100.00;98066.98;105586;1283;24432;-88
2022/07/24 02:56:40;;;;;;;21.60;17.30;;;;;;;17.60;100.00;98071.80;105838;1282;22910;-89
2022/07/24 02:59:08;;;;;;;20.00;15.80;;;;;;;17.51;100.00;98073.45;105208;1282;22558;-88
2022/07/24 03:01:38;;;;;;;17.10;15.40;;;;;;;17.45;99.85;98079.88;105126;1283;22789;-88
2022/07/24 03:04:06;;;;;;;17.00;15.30;;;;;;;17.37;99.88;98079.14;105151;1282;24428;-89
2022/07/24 03:06:34;;;;;;;17.70;15.00;;;;;;;17.27;99.85;98083.02;105381;1282;22531;-90
2022/07/24 03:09:03;;;;;;;18.20;15.30;;;;;;;17.17;99.83;98083.23;105442;1282;22868;-90
2022/07/24 03:11:32;;;;;;;15.50;14.00;;;;;;;17.11;99.95;98085.36;105410;1283;22668;-90
2022/07/24 03:14:00;;;;;;;17.60;14.10;;;;;;;17.03;99.97;98085.38;105404;1282;25350;-89
2022/07/24 03:16:28;;;;;;;15.80;14.00;;;;;;;16.94;99.98;98090.47;105390;1282;22692;-88
2022/07/24 03:18:57;;;;;;;16.60;14.90;;;;;;;16.90;100.00;98095.36;105382;1282;25260;-88
2022/07/24 03:21:25;;;;;;;16.70;14.90;;;;;;;16.83;100.00;98099.07;105436;1283;22701;-88
2022/07/24 03:24:13;;;;;;;15.60;14.00;;;;;;;16.78;100.00;98099.68;105408;1282;25419;-88
2022/07/24 03:26:41;;;;;;;17.00;15.00;;;;;;;16.74;100.00;98103.95;105150;1283;22534;-89
2022/07/24 03:29:10;;;;;;;18.00;16.00;;;;;;;16.70;100.00;98111.02;105405;1282;23349;-90
2022/07/24 03:31:38;;;;;;;19.70;16.40;;;;;;;16.68;100.00;98111.71;105407;1283;25246;-89
2022/07/24 03:34:06;;;;;;;19.20;15.60;;;;;;;16.64;100.00;98117.10;105399;1282;25218;-90
2022/07/24 03:36:35;;;;;;;21.00;15.50;;;;;;;16.62;100.00;98118.65;105406;1283;24371;-88
2022/07/24 03:39:04;;;;;;;17.30;15.80;;;;;;;16.60;100.00;98121.86;105180;1282;22623;-90
2022/07/24 03:41:33;;;;;;;19.40;15.50;;;;;;;16.61;100.00;98120.42;105441;1282;23004;-89
2022/07/24 03:44:01;;;;;;;16.40;13.90;;;;;;;16.57;100.00;98125.80;105443;1282;25364;-90
2022/07/24 03:46:29;;;;;;;15.20;13.60;;;;;;;16.55;100.00;98126.73;105388;1282;22567;-90
2022/07/24 03:48:57;;;;;;;15.60;13.80;;;;;;;16.53;100.00;98131.33;105410;1282;22574;-89
2022/07/24 03:51:26;;;;;;;14.30;12.80;;;;;;;16.53;100.00;98133.23;105178;1282;25507;-90
2022/07/24 03:53:54;;;;;;;15.30;13.80;;;;;;;16.52;100.00;98133.38;105385;1282;22617;-88
2022/07/24 03:56:23;;;;;;;16.70;13.60;;;;;;;16.52;100.00;98135.77;105404;1282;22638;-89
2022/07/24 03:58:53;;;;;;;14.80;13.10;;;;;;;16.54;100.00;98134.02;105439;1282;22577;-90
2022/07/24 04:01:22;;;;;;;16.60;13.00;;;;;;;16.55;99.98;98141.49;105225;1282;22560;-89
2022/07/24 04:03:50;;;;;;;19.80;13.90;;;;;;;16.55;99.99;98136.39;105387;1282;22613;-90
2022/07/24 04:06:18;;;;;;;30.60;15.10;;;;;;;16.58;99.93;98140.38;105440;1282;25406;-90
2022/07/24 04:08:47;;;;;;;15.30;12.90;;;;;;;16.61;99.91;98141.86;105452;1282;23999;-90
2022/07/24 04:11:15;;;;;;;15.10;12.70;;;;;;;16.62;99.79;98149.66;105445;1283;26640;-90
2022/07/24 04:13:43;;;;;;;20.10;13.00;;;;;;;16.61;99.74;98150.40;105229;1282;25312;-90
2022/07/24 04:16:11;;;;;;;15.30;13.20;;;;;;;16.60;99.76;98151.48;105362;1282;22694;-89
2022/07/24 04:18:40;;;;;;;15.00;13.50;;;;;;;16.59;99.69;98155.33;105249;1283;25441;-90
2022/07/24 04:21:08;;;;;;;17.50;13.00;;;;;;;16.58;99.68;98156.85;105322;1282;22663;-90
2022/07/24 04:23:37;;;;;;;19.30;13.10;;;;;;;16.63;99.63;98160.13;105403;1282;24254;-90
2022/07/24 04:26:05;;;;;;;17.90;12.70;;;;;;;16.68;99.53;98163.96;105384;1283;22551;-90
2022/07/24 04:28:33;;;;;;;22.30;13.10;;;;;;;16.71;99.47;98169.05;105389;1282;23171;-90
2022/07/24 04:31:02;;;;;;;17.70;13.70;;;;;;;16.76;99.41;98172.33;105410;1282;22593;-89
2022/07/24 04:33:30;;;;;;;20.10;13.00;;;;;;;16.80;99.29;98176.90;105265;1282;25478;-89
2022/07/24 04:35:58;;;;;;;18.30;13.10;;;;;;;16.83;99.27;98177.09;105256;1284;22534;-89
2022/07/24 04:38:26;;;;;;;17.10;13.80;;;;;;;16.89;99.14;98181.58;105384;1282;22632;-90
2022/07/24 04:40:54;;;;;;;17.80;14.40;;;;;;;16.94;98.91;98186.50;105398;1282;22637;-90
2022/07/24 04:43:22;;;;;;;21.10;13.40;;;;;;;17.00;99.04;98186.87;105422;1282;24370;-89
2022/07/24 04:45:50;;;;;;;16.40;13.80;;;;;;;17.04;98.75;98187.09;105416;1282;22564;-89
2022/07/24 04:48:18;;;;;;;15.20;13.00;;;;;;;17.04;98.60;98191.92;105412;1283;25355;-89
2022/07/24 04:50:46;;;;;;;16.20;13.50;;;;;;;17.07;98.56;98194.34;105411;1282;22887;-91
2022/07/24 04:53:14;;;;;;;15.20;12.80;;;;;;;17.10;98.72;98191.56;105401;1282;22580;-89
2022/07/24 04:55:42;;;;;;;18.00;14.00;;;;;;;17.16;98.54;98191.24;105219;1283;25363;-89
2022/07/24 04:58:10;;;;;;;15.80;13.40;;;;;;;17.23;98.63;98192.59;105552;1282;23447;-90
2022/07/24 05:00:38;;;;;;;15.50;13.90;;;;;;;17.28;98.14;98197.50;105437;1282;25364;-90
2022/07/24 05:03:06;;;;;;;17.40;13.40;;;;;;;17.28;97.72;98197.19;105394;1282;24219;-89
2022/07/24 05:05:33;;;;;;;15.60;13.50;;;;;;;17.29;97.62;98204.61;105360;1283;22643;-89
2022/07/24 05:08:02;;;;;;;15.10;13.30;;;;;;;17.30;97.32;98204.17;105218;1284;22553;-89
2022/07/24 05:10:30;;;;;;;14.30;12.60;;;;;;;17.32;97.20;98209.39;105438;1282;22565;-89
2022/07/24 05:12:58;;;;;;;13.90;12.30;;;;;;;17.37;97.43;98207.41;105456;1282;25481;-90
2022/07/24 05:15:30;;;;;;;15.30;12.00;;;;;;;17.43;96.81;98209.23;105195;1283;25406;-90
2022/07/24 05:17:58;;;;;;;13.70;12.30;;;;;;;17.47;97.08;98206.02;105379;1282;22879;-88
2022/07/24 05:20:26;;;;;;;13.10;11.30;;;;;;;17.56;97.06;98206.96;105493;1282;23215;-87
2022/07/24 05:22:54;;;;;;;21.60;12.60;;;;;;;17.63;95.87;98210.10;105463;1282;25307;-89
2022/07/24 05:25:22;;;;;;;18.00;11.40;;;;;;;17.64;95.70;98209.82;105447;1282;22623;-89
2022/07/24 05:27:50;;;;;;;13.20;10.90;;;;;;;17.72;95.95;98211.33;105449;1282;22667;-88
2022/07/24 05:30:18;;;;;;;14.30;11.40;;;;;;;17.79;94.91;98211.97;105475;1282;25485;-90
2022/07/24 05:32:46;;;;;;;12.20;10.60;;;;;;;17.86;95.16;98221.00;105462;1282;24220;-85
2022/07/24 05:35:14;;;;;;;16.40;11.00;;;;;;;17.93;94.45;98219.29;105221;1283;25354;-89
2022/07/24 05:37:53;;;;;;;16.60;11.70;;;;;;;17.99;93.65;98219.55;105387;1282;25475;-89
2022/07/24 05:40:21;;;;;;;15.50;11.80;;;;;;;17.98;92.38;98219.53;105441;1283;22560;-89
2022/07/24 05:42:49;;;;;;;12.40;10.00;;;;;;;18.00;92.48;98218.67;105465;1282;24369;-90
2022/07/24 05:45:17;;;;;;;12.30;10.30;;;;;;;18.05;92.20;98214.86;105361;1282;24271;-88
2022/07/24 05:47:45;;;;;;;11.80;10.10;;;;;;;18.11;91.01;98213.27;105413;1282;22557;-89
2022/07/24 05:50:13;;;;;;;12.20;9.60;;;;;;;18.15;90.82;98213.00;105342;1282;24214;-88
2022/07/24 05:52:42;;;;;;;13.50;9.70;;;;;;;18.21;90.66;98215.05;105292;1284;25313;-89
2022/07/24 05:55:10;;;;;;;13.70;9.10;;;;;;;18.28;89.35;98220.41;105415;1282;22558;-89
2022/07/24 05:57:47;;;;;;;10.80;9.20;;;;;;;18.29;88.11;98220.13;105410;1282;25354;-89
2022/07/24 06:00:18;;;;;;;12.80;9.90;;;;;;;18.32;88.22;98217.27;105376;1282;22537;-90
2022/07/24 06:02:50;;;;;;;13.30;9.90;;;;;;;18.40;87.86;98223.73;105274;1284;25444;-89
2022/07/24 06:05:18;;;;;;;12.90;8.90;;;;;;;18.44;87.73;98222.57;105407;1282;22858;-89
2022/07/24 06:07:46;;;;;;;11.50;9.30;;;;;;;18.52;87.76;98214.77;105383;1282;22657;-89
2022/07/24 06:10:14;;;;;;;11.70;9.50;;;;;;;18.62;87.15;98217.40;105391;1282;22567;-88
2022/07/24 06:12:42;;;;;;;10.60;8.90;;;;;;;18.65;86.31;98213.12;105418;1282;25364;-89
2022/07/24 06:15:11;;;;;;;12.50;8.70;;;;;;;18.72;85.98;98214.36;105354;1282;25483;-89
2022/07/24 06:17:40;;;;;;;10.50;8.60;;;;;;;18.74;85.30;98219.20;105072;1282;22591;-89
2022/07/24 06:20:12;;;;;;;10.50;8.70;;;;;;;18.76;85.06;98219.71;105331;1282;22890;-90
2022/07/24 06:22:41;;;;;;;9.70;7.60;;;;;;;18.77;84.35;98220.80;105495;1282;22551;-89
2022/07/24 06:25:16;;;;;;;10.00;7.90;;;;;;;18.81;82.89;98223.86;105388;1283;22627;-88
2022/07/24 06:27:49;;;;;;;11.40;9.40;;;;;;;18.83;82.57;98223.53;105449;1283;24362;-89
2022/07/24 06:30:23;;;;;;;10.70;9.30;;;;;;;18.89;81.86;98223.23;105324;1282;25482;-89
2022/07/24 06:32:54;;;;;;;13.60;8.60;;;;;;;18.93;81.67;98223.58;105428;1284;24280;-88
2022/07/24 06:35:23;;;;;;;16.50;8.50;;;;;;;19.05;82.97;98220.27;105400;1282;22566;-88
2022/07/24 06:37:51;;;;;;;13.90;9.60;;;;;;;19.23;82.46;98221.40;105408;1283;22569;-88
2022/07/24 06:40:19;;;;;;;14.10;10.00;;;;;;;19.35;81.38;98227.88;105431;1283;24333;-89
2022/07/24 06:42:48;;;;;;;11.40;9.40;;;;;;;19.39;79.85;98225.49;105448;1282;24236;-90
2022/07/24 06:45:16;;;;;;;14.40;10.20;;;;;;;19.37;78.03;98229.60;105395;1283;24357;-89
2022/07/24 06:47:45;;;;;;;12.90;8.70;;;;;;;19.40;79.71;98228.04;105183;1283;22552;-89
2022/07/24 06:50:14;;;;;;;14.30;10.40;;;;;;;19.49;79.09;98227.03;105389;1283;22737;-89
2022/07/24 06:52:42;;;;;;;13.30;9.40;;;;;;;19.53;77.46;98230.19;105210;1284;22723;-88
2022/07/24 06:55:10;;;;;;;16.30;10.30;;;;;;;19.58;77.55;98231.23;105286;1284;24265;-89
2022/07/24 06:57:39;;;;;;;16.00;10.50;;;;;;;19.60;76.85;98232.77;105285;1284;22767;-89
2022/07/24 07:00:09;;;;;;;13.90;9.60;;;;;;;19.68;75.92;98233.64;105393;1284;23052;-89
2022/07/24 07:02:39;;;;;;;15.30;9.70;;;;;;;19.70;75.90;98232.53;105377;1283;24373;-89
2022/07/24 07:05:08;;;;;;;13.90;9.50;;;;;;;19.78;76.25;98237.80;105386;1284;23915;-89
2022/07/24 07:07:37;;;;;;;10.30;9.00;;;;;;;19.85;74.20;98239.02;105336;1284;25305;-89
2022/07/24 07:10:06;;;;;;;11.70;8.00;;;;;;;19.95;74.54;98237.70;105233;1286;22703;-89
2022/07/24 07:12:36;;;;;;;14.50;8.30;;;;;;;20.15;75.99;98239.83;105250;1284;24371;-89
2022/07/24 07:15:09;;;;;;;16.80;8.70;;;;;;;20.35;74.77;98235.64;105270;1284;25465;-89
2022/07/24 07:17:39;;;;;;;13.20;7.30;;;;;;;20.32;74.21;98240.27;105226;1284;24417;-90
2022/07/24 07:20:09;;;;;;;15.00;8.50;;;;;;;20.20;73.37;98239.58;105419;1284;22552;-89
2022/07/24 07:22:38;;;;;;;11.20;8.00;;;;;;;20.15;73.12;98238.36;105465;1284;22583;-87
2022/07/24 07:25:07;;;;;;;14.50;7.30;;;;;;;20.10;72.10;98239.09;105444;1284;25864;-88
2022/07/24 07:27:35;;;;;;;8.50;6.80;;;;;;;19.93;71.87;98239.76;105899;1284;22660;-88
2022/07/24 07:30:04;;;;;;;10.00;6.40;;;;;;;19.86;70.41;98241.21;105290;1285;22577;-89
2022/07/24 07:32:32;;;;;;;8.30;5.20;;;;;;;19.88;69.50;98241.05;105390;1283;22725;-88
2022/07/24 07:35:00;;;;;;;8.70;5.00;;;;;;;20.05;69.07;98239.11;105415;1283;22693;-89
2022/07/24 07:37:32;;;;;;;7.50;5.30;;;;;;;20.26;67.34;98242.98;105588;1284;25421;-88
2022/07/24 07:40:00;;;;;;;7.10;5.10;;;;;;;20.43;66.75;98238.31;105470;1284;24676;-89
2022/07/24 07:42:28;;;;;;;9.20;5.60;;;;;;;20.64;67.10;98243.52;105038;1284;24232;-89
2022/07/24 07:44:56;;;;;;;8.00;5.30;;;;;;;20.68;66.01;98249.63;105421;1284;22620;-90
2022/07/24 07:47:24;;;;;;;7.10;5.20;;;;;;;20.70;65.91;98252.19;105437;1283;24078;-87
2022/07/24 07:49:52;;;;;;;8.10;5.40;;;;;;;20.62;65.37;98252.02;105362;1284;25359;-87
2022/07/24 07:52:20;;;;;;;7.90;5.10;;;;;;;20.59;65.56;98250.13;105241;1284;25390;-88
2022/07/24 07:54:49;;;;;;;8.40;5.50;;;;;;;20.57;65.21;98252.75;105435;1282;24214;-89
2022/07/24 07:57:18;;;;;;;7.10;5.80;;;;;;;20.68;64.08;98259.34;105498;1284;22538;-88
2022/07/24 07:59:46;;;;;;;7.00;5.20;;;;;;;20.74;63.03;98253.05;105323;1283;22572;-89
2022/07/24 08:02:15;;;;;;;9.00;5.80;;;;;;;20.86;62.69;98252.46;105157;1284;23462;-90
2022/07/24 08:04:43;;;;;;;7.80;5.40;;;;;;;21.03;62.33;98251.10;105149;1284;22809;-89
2022/07/24 08:07:12;;;;;;;8.30;5.80;;;;;;;20.97;60.85;98251.36;105399;1284;24429;-88
2022/07/24 08:09:40;;;;;;;7.50;5.80;;;;;;;20.81;61.51;98253.52;105206;1284;25370;-89
2022/07/24 08:12:11;;;;;;;6.80;5.50;;;;;;;20.82;62.71;98254.79;105384;1283;22754;-89
2022/07/24 08:14:43;;;;;;;6.80;5.40;;;;;;;21.06;63.31;98254.52;105389;1283;22659;-86
2022/07/24 08:17:11;;;;;;;6.90;5.90;;;;;;;21.28;61.70;98255.29;105451;1283;22554;-88
2022/07/24 08:19:40;;;;;;;6.50;5.40;;;;;;;21.34;60.88;98256.14;105283;1283;22874;-88
2022/07/24 08:22:08;;;;;;;7.70;5.30;;;;;;;21.31;61.34;98256.83;105209;1284;22551;-89
2022/07/24 08:24:36;;;;;;;7.40;5.50;;;;;;;21.29;61.24;98261.58;105421;1283;24231;-87
2022/07/24 08:27:04;;;;;;;7.20;5.40;;;;;;;21.22;61.06;98265.34;105324;1283;22580;-89
2022/07/24 08:29:32;;;;;;;8.50;5.10;;;;;;;21.32;61.21;98263.77;105129;1284;25310;-89
2022/07/24 08:32:00;;;;;;;7.40;5.10;;;;;;;21.42;60.30;98270.08;105173;1284;22649;-86
2022/07/24 08:34:28;;;;;;;8.20;5.90;;;;;;;21.37;59.61;98276.79;105077;1283;22995;-88
2022/07/24 08:36:57;;;;;;;7.50;5.90;;;;;;;21.30;59.87;98268.57;105440;1283;24295;-88
2022/07/24 08:39:25;;;;;;;8.30;6.50;;;;;;;21.42;57.85;98275.58;105191;1284;22708;-89
2022/07/24 08:41:53;;;;;;;6.80;5.90;;;;;;;21.53;57.70;98271.87;105450;1283;24444;-88
2022/07/24 08:44:21;;;;;;;7.70;6.90;;;;;;;21.61;55.65;98276.80;105176;1284;22583;-88
2022/07/24 08:46:53;;;;;;;8.20;6.70;;;;;;;21.66;55.87;98266.86;105143;1282;22565;-88
2022/07/24 08:49:21;;;;;;;7.00;6.20;;;;;;;21.74;56.11;98262.23;105019;1285;22702;-88
2022/07/24 08:51:51;;;;;;;9.70;6.70;;;;;;;21.90;56.63;98264.34;105415;1283;24121;-89
2022/07/24 08:54:19;;;;;;;6.90;6.20;;;;;;;22.00;56.24;98263.56;105444;1283;25365;-89
2022/07/24 08:56:49;;;;;;;7.90;6.80;;;;;;;22.05;55.35;98262.46;105406;1284;25440;-89
2022/07/24 08:59:21;;;;;;;7.90;5.60;;;;;;;22.05;54.70;98264.35;105142;1284;22552;-89
2022/07/24 09:01:53;;;;;;;11.70;6.40;;;;;;;21.92;54.56;98265.08;105100;1283;25506;-88
2022/07/24 09:04:40;;;;;;;9.40;5.30;;;;;;;22.01;55.89;98263.90;105426;1282;22547;-90
2022/07/24 09:07:12;;;;;;;6.90;6.00;;;;;;;22.15;53.98;98268.64;105491;1282;24399;-90
2022/07/24 09:09:43;;;;;;;7.90;6.00;;;;;;;22.30;53.67;98266.61;107832;1283;22556;-87
2022/07/24 09:12:17;;;;;;;6.30;5.50;;;;;;;22.44;52.42;98264.87;105801;1282;22564;-90
2022/07/24 09:14:47;;;;;;;5.80;4.90;;;;;;;22.53;52.30;98268.38;105131;1284;25419;-88
2022/07/24 09:17:21;;;;;;;8.00;5.30;;;;;;;22.65;52.35;98274.45;105115;1284;22532;-90
2022/07/24 09:19:56;;;;;;;;;;;;;;;22.71;52.45;98279.65;105263;1283;22537;-89
2022/07/24 09:22:40;;;;;;;6.90;4.70;;;;;;;22.64;53.10;98272.95;105388;1282;23943;-88
2022/07/24 09:25:22;;;;;;;8.00;4.70;;;;;;;22.82;53.68;98279.65;105235;1284;26607;-89
2022/07/24 09:27:53;;;;;;;6.20;4.70;;;;;;;22.93;50.54;98279.63;105393;1283;22889;-90
2022/07/24 09:30:27;;;;;;;7.80;4.20;;;;;;;22.91;49.60;98271.84;105289;1284;24316;-90
2022/07/24 09:32:58;;;;;;;6.00;4.10;;;;;;;22.95;48.98;98278.89;105319;1283;22628;-90
2022/07/24 09:35:37;;;;;;;9.30;4.40;;;;;;;22.94;48.14;98278.41;105387;1283;22890;-89
2022/07/24 09:38:09;;;;;;;5.70;4.10;;;;;;;23.01;49.88;98270.90;105282;1283;25395;-89
2022/07/24 09:40:38;;;;;;;7.40;4.50;;;;;;;23.14;49.59;98270.92;105021;1283;24279;-89
2022/07/24 09:43:26;;;;;;;5.20;4.10;;;;;;;23.28;49.79;98265.77;105378;1283;25536;-89
2022/07/24 09:46:15;;;;;;;7.30;4.70;;;;;;;23.45;50.81;98258.02;105262;1284;23046;-90
2022/07/24 09:48:57;;;;;;;6.10;4.20;;;;;;;23.68;50.40;98254.59;105362;1282;22569;-88
2022/07/24 09:51:27;;;;;;;7.30;4.50;;;;;;;23.85;47.52;98258.10;105502;1283;22565;-89
2022/07/24 09:53:58;;;;;;;6.40;3.80;;;;;;;23.79;48.01;98258.89;105279;1284;23191;-89
2022/07/24 09:56:29;;;;;;;5.50;4.10;;;;;;;23.95;47.71;98254.72;105360;1282;22904;-89
2022/07/24 09:58:59;;;;;;;5.30;4.00;;;;;;;24.03;47.53;98256.61;105455;1282;25325;-88
2022/07/24 10:01:28;;;;;;;5.70;4.40;;;;;;;24.10;46.22;98267.52;105231;1283;22602;-89
2022/07/24 10:03:58;;;;;;;5.80;4.60;;;;;;;23.91;47.27;98261.21;105311;1283;22557;-88
2022/07/24 10:06:26;;;;;;;6.70;5.50;;;;;;;23.68;47.44;98262.45;105254;1284;25407;-89
2022/07/24 10:08:56;;;;;;;5.50;4.50;;;;;;;23.62;46.56;98258.44;105156;1283;22817;-89
2022/07/24 10:11:27;;;;;;;6.50;4.30;;;;;;;23.68;46.40;98259.78;105389;1282;24224;-88
2022/07/24 10:13:57;;;;;;;10.90;4.70;;;;;;;23.61;47.05;98258.14;104840;1284;22560;-88
2022/07/24 10:16:31;;;;;;;7.30;4.70;;;;;;;23.58;46.74;98258.65;105414;1282;24235;-88
2022/07/24 10:19:06;;;;;;;9.90;4.90;;;;;;;23.54;47.71;98249.50;107758;1282;22578;-88
2022/07/24 10:21:37;;;;;;;9.20;4.90;;;;;;;23.47;48.61;98249.80;105972;1282;25360;-89
2022/07/24 10:24:05;;;;;;;5.00;4.20;;;;;;;23.65;47.12;98252.74;105423;1282;25318;-88
2022/07/24 10:26:51;;;;;;;6.40;4.70;;;;;;;23.79;45.73;98251.19;105421;1284;24415;-89
2022/07/24 10:29:23;;;;;;;7.50;4.50;;;;;;;23.78;46.31;98240.73;105282;1282;22714;-88
2022/07/24 10:31:54;;;;;;;6.50;4.70;;;;;;;23.72;46.35;98246.64;105252;1282;22553;-89
2022/07/24 10:34:49;;;;;;;6.10;4.40;;;;;;;23.68;46.25;98249.88;105435;1282;24400;-89
2022/07/24 10:37:20;;;;;;;;;;;;;;;23.53;46.84;98245.63;105435;1282;22537;-90
2022/07/24 10:39:57;;;;;;;6.20;4.80;;;;;;;23.51;47.47;98244.11;105413;1282;22650;-89
2022/07/24 10:42:25;;;;;;;7.90;4.90;;;;;;;23.60;48.10;98242.16;105375;1282;22567;-89
2022/07/24 10:45:13;;;;;;;6.50;4.80;;;;;;;23.76;47.04;98237.55;105607;1282;22628;-89
2022/07/24 10:47:41;;;;;;;11.40;5.20;;;;;;;23.95;46.99;98234.44;104893;1285;22809;-89
2022/07/24 10:50:09;;;;;;;6.80;4.70;;;;;;;24.26;47.03;98233.76;105395;1283;23981;-89
2022/07/24 10:52:39;;;;;;;5.30;4.40;;;;;;;24.55;45.33;98234.47;105457;1282;22566;-90
2022/07/24 10:55:28;;;;;;;7.20;5.30;;;;;;;24.42;43.25;98236.26;105279;1282;22629;-91
2022/07/24 10:58:09;;;;;;;5.60;4.60;;;;;;;24.04;42.68;98233.88;105197;1282;25304;-88
2022/07/24 11:00:44;;;;;;;7.10;4.80;;;;;;;23.77;44.32;98235.05;105329;1282;24526;-90
2022/07/24 11:03:24;;;;;;;10.90;5.60;;;;;;;23.99;44.35;98228.64;105188;1283;24381;-90
2022/07/24 11:06:07;;;;;;;5.70;4.30;;;;;;;24.25;44.33;98226.11;105430;1283;24288;-88
2022/07/24 11:08:41;;;;;;;7.70;5.00;;;;;;;24.16;44.26;98230.60;105492;1282;22728;-89
2022/07/24 11:11:15;;;;;;;5.20;4.70;;;;;;;24.19;44.49;98224.11;105182;1281;23957;-90
2022/07/24 11:13:45;;;;;;;6.60;4.50;;;;;;;24.38;44.00;98223.14;105428;1283;22567;-90
2022/07/24 11:16:18;;;;;;;6.00;5.30;;;;;;;24.29;42.38;98222.45;105186;1282;23952;-88
2022/07/24 11:18:49;;;;;;;6.10;5.00;;;;;;;24.43;42.95;98217.69;105410;1282;26731;-88
2022/07/24 11:21:35;;;;;;;7.30;4.60;;;;;;;24.57;43.19;98212.21;105283;1284;22557;-88
2022/07/24 11:27:16;;;;;;;8.00;6.10;;;;;;;24.50;43.95;98216.48;108663;1282;22706;-88
2022/07/24 11:29:44;;;;;;;6.30;5.10;;;;;;;24.66;43.82;98211.23;105391;1282;24120;-89